Terminal Aerodrome Forecast
Issued by NWS Tulsa, OK

Home | Current Version | Previous Version | Text Only | Print | Product List | Glossary On
Versions: 1 2 3 4 5 6 7 8 9 10 11 12
108
FTUS44 KTSA 071737
TAFFSM
TAF
KFSM 071737Z 0718/0818 25008KT P6SM BKN150
     FM072100 28011KT P6SM SCT150
     FM080100 30011KT P6SM SCT250
     FM081400 30016G25KT P6SM SCT050=

USA.gov is the U.S. government's official web portal to all federal, state and local government web resources and services.